Terminal Aerodrome Forecast
Issued by NWS Lake Charles, LA

Home | Current Version | Previous Version | Text Only | Print | Product List | Glossary On
Versions: 1 2 3 4 5 6 7 8 9 10 11 12 13 14 15 16
000
FTUS44 KLCH 251720
TAFAEX
TAF
KAEX 251720Z 2518/2618 18011G19KT P6SM SCT025 BKN035
      TEMPO 2518/2522 BKN025 BKN035
     FM260100 17008KT P6SM SCT040
     FM260600 16005KT P6SM BKN025
      TEMPO 2610/2614 OVC008
     FM261500 17008KT P6SM VCSH BKN025=

USA.gov is the U.S. government's official web portal to all federal, state and local government web resources and services.